createdAt,value
2022-10-06T00:00:39.855Z,101182.00
2022-10-06T00:03:13.277Z,101186.00
2022-10-06T00:05:47.228Z,101200.00
2022-10-06T00:08:20.430Z,101201.00
2022-10-06T00:10:53.221Z,101202.00
2022-10-06T00:13:27.568Z,101207.00
2022-10-06T00:16:01.176Z,101202.00
2022-10-06T00:18:34.032Z,101205.00
2022-10-06T00:21:06.921Z,101231.00
2022-10-06T00:23:40.372Z,101241.00
2022-10-06T00:26:16.113Z,101226.00
2022-10-06T00:28:52.235Z,101237.00
2022-10-06T00:31:25.890Z,101242.00
2022-10-06T00:33:58.887Z,101239.00
2022-10-06T00:36:31.835Z,101228.00
2022-10-06T00:39:04.645Z,101236.00
2022-10-06T00:41:37.642Z,101235.00
2022-10-06T00:44:11.317Z,101250.00
2022-10-06T00:46:47.658Z,101248.00
2022-10-06T00:49:37.849Z,101252.00
2022-10-06T00:52:13.072Z,101255.00
2022-10-06T00:54:46.785Z,101260.00
2022-10-06T00:57:20.263Z,101269.00
2022-10-06T00:59:53.151Z,101264.00
2022-10-06T01:02:30.966Z,101275.00
2022-10-06T01:05:05.677Z,101275.00
2022-10-06T01:07:38.774Z,101283.00
2022-10-06T01:10:12.084Z,101284.00
2022-10-06T01:12:45.338Z,101275.00
2022-10-06T01:15:19.449Z,101264.00
2022-10-06T01:17:54.461Z,101274.00
2022-10-06T01:20:28.103Z,101283.00
2022-10-06T01:23:08.934Z,101288.00
2022-10-06T01:25:43.012Z,101290.00
2022-10-06T01:28:17.327Z,101298.00
2022-10-06T01:30:58.724Z,101287.00
2022-10-06T01:33:32.749Z,101298.00
2022-10-06T01:36:06.560Z,101313.00
2022-10-06T01:38:39.922Z,101319.00
2022-10-06T01:41:12.893Z,101320.00
2022-10-06T01:43:46.038Z,101333.00
2022-10-06T01:46:19.425Z,101326.00
2022-10-06T01:48:52.799Z,101312.00
2022-10-06T01:51:25.797Z,101331.00
2022-10-06T01:53:59.178Z,101313.00
2022-10-06T01:56:32.457Z,101314.00
2022-10-06T01:59:05.493Z,101306.00
2022-10-06T02:01:38.749Z,101303.00
2022-10-06T02:04:11.906Z,101305.00
2022-10-06T02:06:44.896Z,101312.00
2022-10-06T02:09:18.330Z,101311.00
2022-10-06T02:11:51.619Z,101308.00
2022-10-06T02:14:24.605Z,101307.00
2022-10-06T02:16:59.001Z,101310.00
2022-10-06T02:19:32.137Z,101320.00
2022-10-06T02:22:06.084Z,101315.00
2022-10-06T02:24:39.205Z,101327.00
2022-10-06T02:27:12.330Z,101350.00
2022-10-06T02:29:45.421Z,101333.00
2022-10-06T02:32:18.599Z,101335.00
2022-10-06T02:34:54.762Z,101335.00
2022-10-06T02:37:26.315Z,101328.00
2022-10-06T02:39:59.445Z,101328.00
2022-10-06T02:42:32.641Z,101319.00
2022-10-06T02:45:05.782Z,101331.00
2022-10-06T02:47:39.890Z,101347.00
2022-10-06T02:50:13.495Z,101311.00
2022-10-06T02:52:46.885Z,101327.00
2022-10-06T02:55:20.181Z,101333.00
2022-10-06T02:57:53.268Z,101332.00
2022-10-06T03:00:26.322Z,101331.00
2022-10-06T03:02:59.604Z,101332.00
2022-10-06T03:05:34.864Z,101344.00
2022-10-06T03:08:07.879Z,101330.00
2022-10-06T03:10:40.842Z,101328.00
2022-10-06T03:13:13.972Z,101322.00
2022-10-06T03:15:47.009Z,101334.00
2022-10-06T03:18:20.204Z,101334.00
2022-10-06T03:20:53.594Z,101379.00
2022-10-06T03:23:26.668Z,101389.00
2022-10-06T03:26:03.115Z,101390.00
2022-10-06T03:28:36.167Z,101379.00
2022-10-06T03:31:10.912Z,101381.00
2022-10-06T03:33:44.076Z,101385.00
2022-10-06T03:36:19.373Z,101388.00
2022-10-06T03:38:52.534Z,101385.00
2022-10-06T03:41:30.759Z,101390.00
2022-10-06T03:44:04.082Z,101393.00
2022-10-06T03:46:38.637Z,101389.00
2022-10-06T03:49:11.608Z,101385.00
2022-10-06T03:51:45.662Z,101393.00
2022-10-06T03:54:18.599Z,101386.00
2022-10-06T03:56:51.931Z,101377.00
2022-10-06T03:59:24.960Z,101380.00
2022-10-06T04:01:58.310Z,101403.00
2022-10-06T04:04:31.060Z,101388.00
2022-10-06T04:07:03.971Z,101389.00
2022-10-06T04:09:36.950Z,101394.00
2022-10-06T04:12:10.151Z,101402.00
2022-10-06T04:14:45.528Z,101401.00
2022-10-06T04:17:19.211Z,101397.00
2022-10-06T04:19:52.165Z,101401.00
2022-10-06T04:22:25.092Z,101405.00
2022-10-06T04:24:58.272Z,101408.00
2022-10-06T04:27:31.198Z,101417.00
2022-10-06T04:30:04.217Z,101419.00
2022-10-06T04:32:37.731Z,101409.00
2022-10-06T04:35:11.715Z,101427.00
2022-10-06T04:37:44.678Z,101429.00
2022-10-06T04:40:18.311Z,101431.00
2022-10-06T04:42:52.143Z,101432.00
2022-10-06T04:45:25.163Z,101433.00
2022-10-06T04:47:58.098Z,101439.00
2022-10-06T04:50:31.311Z,101438.00
2022-10-06T04:53:04.204Z,101448.00
2022-10-06T04:55:37.897Z,101452.00
2022-10-06T04:58:10.786Z,101449.00
2022-10-06T05:00:44.105Z,101439.00
2022-10-06T05:03:17.540Z,101446.00
2022-10-06T05:05:50.657Z,101448.00
2022-10-06T05:08:23.626Z,101449.00
2022-10-06T05:10:58.352Z,101460.00
2022-10-06T05:13:31.399Z,101471.00
2022-10-06T05:16:05.490Z,101468.00
2022-10-06T05:18:39.193Z,101472.00
2022-10-06T05:21:19.265Z,101475.00
2022-10-06T05:23:52.117Z,101484.00
2022-10-06T05:26:26.922Z,101483.00
2022-10-06T05:28:59.888Z,101481.00
2022-10-06T05:31:34.620Z,101493.00
2022-10-06T05:34:08.143Z,101494.00
2022-10-06T05:36:41.375Z,101488.00
2022-10-06T05:39:14.282Z,101484.00
2022-10-06T05:41:51.359Z,101494.00
2022-10-06T05:44:24.381Z,101493.00
2022-10-06T05:46:57.334Z,101502.00
2022-10-06T05:49:30.465Z,101501.00
2022-10-06T05:52:03.545Z,101485.00
2022-10-06T05:54:36.434Z,101506.00
2022-10-06T05:57:09.775Z,101499.00
2022-10-06T05:59:42.769Z,101494.00
2022-10-06T06:02:16.158Z,101509.00
2022-10-06T06:04:48.883Z,101509.00
2022-10-06T06:07:21.979Z,101505.00
2022-10-06T06:09:55.296Z,101514.00
2022-10-06T06:12:28.163Z,101526.00
2022-10-06T06:15:18.906Z,101527.00
2022-10-06T06:17:52.535Z,101530.00
2022-10-06T06:20:25.455Z,101546.00
2022-10-06T06:22:58.546Z,101540.00
2022-10-06T06:25:31.420Z,101548.00
2022-10-06T06:28:04.385Z,101544.00
2022-10-06T06:30:37.487Z,101541.00
2022-10-06T06:33:10.398Z,101547.00
2022-10-06T06:35:43.138Z,101556.00
2022-10-06T06:38:16.284Z,101561.00
2022-10-06T06:40:49.449Z,101551.00
2022-10-06T06:43:22.303Z,101562.00
2022-10-06T06:45:55.488Z,101562.00
2022-10-06T06:48:28.523Z,101570.00
2022-10-06T06:51:02.005Z,101572.00
2022-10-06T06:53:35.165Z,101569.00
2022-10-06T06:56:12.655Z,101576.00
2022-10-06T06:58:51.165Z,101569.00
2022-10-06T07:01:25.456Z,101578.00
2022-10-06T07:04:00.699Z,101581.00
2022-10-06T07:06:34.589Z,101581.00
2022-10-06T07:09:07.837Z,101583.00
2022-10-06T07:11:42.654Z,101592.00
2022-10-06T07:14:16.150Z,101592.00
2022-10-06T07:17:10.045Z,101613.00
2022-10-06T07:19:47.199Z,101613.00
2022-10-06T07:22:39.467Z,101607.00
2022-10-06T07:25:15.034Z,101614.00
2022-10-06T07:27:50.007Z,101606.00
2022-10-06T07:30:28.380Z,101622.00
2022-10-06T07:33:01.067Z,101614.00
2022-10-06T07:35:34.087Z,101624.00
2022-10-06T07:38:08.234Z,101624.00
2022-10-06T07:40:46.189Z,101643.00
2022-10-06T07:43:15.474Z,101642.00
2022-10-06T07:45:48.706Z,101639.00
2022-10-06T07:48:25.707Z,101651.00
2022-10-06T07:50:58.872Z,101666.00
2022-10-06T07:53:39.068Z,101667.00
2022-10-06T07:56:12.981Z,101669.00
2022-10-06T07:58:46.508Z,101669.00
2022-10-06T08:01:20.842Z,101677.00
2022-10-06T08:03:53.914Z,101682.00
2022-10-06T08:06:26.891Z,101684.00
2022-10-06T08:09:02.679Z,101699.00
2022-10-06T08:11:35.841Z,101699.00
2022-10-06T08:14:09.050Z,101705.00
2022-10-06T08:16:42.145Z,101699.00
2022-10-06T08:19:16.083Z,101703.00
2022-10-06T08:21:48.895Z,101702.00
2022-10-06T08:24:22.576Z,101702.00
2022-10-06T08:26:56.139Z,101702.00
2022-10-06T08:29:33.118Z,101695.00
2022-10-06T08:32:06.348Z,101714.00
2022-10-06T08:34:39.170Z,101709.00
2022-10-06T08:37:20.456Z,101724.00
2022-10-06T08:39:46.247Z,101725.00
2022-10-06T08:42:38.006Z,101720.00
2022-10-06T08:45:22.491Z,101718.00
2022-10-06T08:48:09.592Z,101734.00
2022-10-06T08:51:00.886Z,101726.00
2022-10-06T08:54:01.696Z,101736.00
2022-10-06T08:57:04.534Z,101736.00
2022-10-06T08:59:41.099Z,101736.00
2022-10-06T09:02:21.878Z,101752.00
2022-10-06T09:04:54.964Z,101742.00
2022-10-06T09:07:35.689Z,101756.00
2022-10-06T09:10:13.725Z,101756.00
2022-10-06T09:12:48.730Z,101764.00
2022-10-06T09:15:55.700Z,101768.00
2022-10-06T09:18:49.794Z,101775.00
2022-10-06T09:21:13.758Z,101771.00
2022-10-06T09:23:51.597Z,101759.00
2022-10-06T09:26:27.058Z,101785.00
2022-10-06T09:29:04.342Z,101781.00
2022-10-06T09:31:42.310Z,101797.00
2022-10-06T09:34:17.612Z,101792.00
2022-10-06T09:37:05.116Z,101795.00
2022-10-06T09:39:39.970Z,101797.00
2022-10-06T09:42:15.376Z,101806.00
2022-10-06T09:44:59.345Z,101814.00
2022-10-06T09:47:53.663Z,101812.00
2022-10-06T09:50:31.378Z,101816.00
2022-10-06T09:53:09.424Z,101813.00
2022-10-06T09:55:44.457Z,101816.00
2022-10-06T09:58:38.891Z,101824.00
2022-10-06T10:01:16.264Z,101832.00
2022-10-06T10:04:15.540Z,101828.00
2022-10-06T10:06:40.381Z,101834.00
2022-10-06T10:09:24.146Z,101826.00
2022-10-06T10:12:30.332Z,101832.00
2022-10-06T10:15:06.024Z,101836.00
2022-10-06T10:17:40.906Z,101837.00
2022-10-06T10:20:28.798Z,101842.00
2022-10-06T10:23:03.775Z,101838.00
2022-10-06T10:25:53.615Z,101832.00
2022-10-06T10:28:47.810Z,101830.00
2022-10-06T10:31:42.298Z,101838.00
2022-10-06T10:34:51.536Z,101830.00
2022-10-06T10:37:45.336Z,101838.00
2022-10-06T10:40:45.504Z,101829.00
2022-10-06T10:43:41.637Z,101834.00
2022-10-06T10:46:19.497Z,101836.00
2022-10-06T10:49:03.465Z,101850.00
2022-10-06T10:51:47.093Z,101857.00
2022-10-06T10:54:26.453Z,101878.00
2022-10-06T10:56:59.488Z,101870.00
2022-10-06T10:59:46.302Z,101873.00
2022-10-06T11:02:21.854Z,101863.00
2022-10-06T11:05:00.005Z,101855.00
2022-10-06T11:07:38.177Z,101857.00
2022-10-06T11:10:24.975Z,101854.00
2022-10-06T11:13:14.527Z,101864.00
2022-10-06T11:16:11.598Z,101876.00
2022-10-06T11:19:04.806Z,101886.00
2022-10-06T11:21:42.352Z,101889.00
2022-10-06T11:24:29.518Z,101901.00
2022-10-06T11:27:20.725Z,101913.00
2022-10-06T11:30:11.906Z,101906.00
2022-10-06T11:33:02.748Z,101914.00
2022-10-06T11:35:41.148Z,101912.00
2022-10-06T11:38:43.639Z,101916.00
2022-10-06T11:41:34.137Z,101928.00
2022-10-06T11:44:30.276Z,101923.00
2022-10-06T11:47:11.251Z,101924.00
2022-10-06T11:49:54.804Z,101935.00
2022-10-06T11:52:29.844Z,101938.00
2022-10-06T11:55:13.712Z,101942.00
2022-10-06T11:58:41.759Z,101952.00
2022-10-06T12:00:47.491Z,101959.00
2022-10-06T12:03:34.879Z,101956.00
2022-10-06T12:06:07.829Z,101970.00
2022-10-06T12:08:42.695Z,101970.00
2022-10-06T12:11:42.829Z,101974.00
2022-10-06T12:17:11.482Z,101977.00
2022-10-06T12:19:55.554Z,101977.00
2022-10-06T12:22:33.637Z,101982.00
2022-10-06T12:25:08.284Z,101992.00
2022-10-06T12:28:00.652Z,101994.00
2022-10-06T12:30:35.744Z,101999.00
2022-10-06T12:33:09.936Z,101995.00
2022-10-06T12:35:43.477Z,102006.00
2022-10-06T12:38:41.962Z,102005.00
2022-10-06T12:41:20.215Z,102011.00
2022-10-06T12:44:00.255Z,102016.00
2022-10-06T12:46:47.063Z,102015.00
2022-10-06T12:49:34.532Z,102018.00
2022-10-06T12:52:12.401Z,102015.00
2022-10-06T12:54:52.997Z,102027.00
2022-10-06T12:57:27.195Z,102019.00
2022-10-06T13:00:00.321Z,102024.00
2022-10-06T13:02:33.926Z,102018.00
2022-10-06T13:05:08.314Z,102026.00
2022-10-06T13:07:42.862Z,102024.00
2022-10-06T13:10:20.876Z,102025.00
2022-10-06T13:12:54.575Z,102027.00
2022-10-06T13:15:42.662Z,102026.00
2022-10-06T13:18:17.609Z,102033.00
2022-10-06T13:20:55.443Z,102026.00
2022-10-06T13:23:35.797Z,102033.00
2022-10-06T13:26:10.826Z,102027.00
2022-10-06T13:28:51.828Z,102014.00
2022-10-06T13:31:39.777Z,102022.00
2022-10-06T13:34:17.065Z,102027.00
2022-10-06T13:36:52.231Z,102022.00
2022-10-06T13:39:27.455Z,102023.00
2022-10-06T13:42:18.500Z,102014.00
2022-10-06T13:45:05.997Z,102030.00
2022-10-06T13:47:39.502Z,102027.00
2022-10-06T13:50:20.906Z,102023.00
2022-10-06T13:52:54.236Z,102025.00
2022-10-06T13:55:31.007Z,102033.00
2022-10-06T13:58:08.572Z,102035.00
2022-10-06T14:00:52.022Z,102033.00
2022-10-06T14:03:27.471Z,102020.00
2022-10-06T14:06:21.037Z,102030.00
2022-10-06T14:09:02.414Z,102028.00
2022-10-06T14:11:35.439Z,102030.00
2022-10-06T14:14:09.527Z,102031.00
2022-10-06T14:16:42.661Z,102024.00
2022-10-06T14:19:33.823Z,102036.00
2022-10-06T14:22:08.066Z,102037.00
2022-10-06T14:24:40.903Z,102032.00
2022-10-06T14:27:13.814Z,102036.00
2022-10-06T14:29:46.619Z,102036.00
2022-10-06T14:32:20.246Z,102034.00
2022-10-06T14:34:53.138Z,102031.00
2022-10-06T14:37:26.296Z,102039.00
2022-10-06T14:39:59.481Z,102033.00
2022-10-06T14:42:32.378Z,102038.00
2022-10-06T14:45:05.378Z,102032.00
2022-10-06T14:47:38.095Z,102038.00
2022-10-06T14:50:13.729Z,102040.00
2022-10-06T14:52:46.714Z,102043.00
2022-10-06T14:55:19.523Z,102037.00
2022-10-06T14:57:52.674Z,102046.00
2022-10-06T15:00:25.611Z,102042.00
2022-10-06T15:02:58.910Z,102032.00
2022-10-06T15:05:32.116Z,102038.00
2022-10-06T15:08:14.074Z,102047.00
2022-10-06T15:10:48.912Z,102043.00
2022-10-06T15:13:21.992Z,102049.00
2022-10-06T15:15:56.750Z,102049.00
2022-10-06T15:18:29.657Z,102056.00
2022-10-06T15:21:09.970Z,102054.00
2022-10-06T15:23:43.557Z,102046.00
2022-10-06T15:26:33.871Z,102056.00
2022-10-06T15:29:06.764Z,102051.00
2022-10-06T15:31:44.431Z,102047.00
2022-10-06T15:34:18.306Z,102055.00
2022-10-06T15:36:52.473Z,102064.00
2022-10-06T15:39:29.620Z,102070.00
2022-10-06T15:42:03.153Z,102057.00
2022-10-06T15:44:39.142Z,102062.00
2022-10-06T15:47:13.304Z,102062.00
2022-10-06T15:49:46.241Z,102066.00
2022-10-06T15:52:20.581Z,102062.00
2022-10-06T15:54:53.875Z,102065.00
2022-10-06T15:57:27.250Z,102076.00
2022-10-06T16:00:00.218Z,102067.00
2022-10-06T16:02:34.390Z,102074.00
2022-10-06T16:05:08.719Z,102071.00
2022-10-06T16:07:41.881Z,102073.00
2022-10-06T16:10:15.444Z,102071.00
2022-10-06T16:12:48.643Z,102073.00
2022-10-06T16:15:21.490Z,102076.00
2022-10-06T16:17:54.519Z,102077.00
2022-10-06T16:20:27.522Z,102075.00
2022-10-06T16:23:00.577Z,102074.00
2022-10-06T16:25:33.482Z,102080.00
2022-10-06T16:28:06.510Z,102087.00
2022-10-06T16:30:39.116Z,102084.00
2022-10-06T16:33:11.926Z,102085.00
2022-10-06T16:35:44.553Z,102082.00
2022-10-06T16:38:17.710Z,102090.00
2022-10-06T16:40:58.388Z,102094.00
2022-10-06T16:43:38.459Z,102096.00
2022-10-06T16:46:13.678Z,102094.00
2022-10-06T16:48:48.348Z,102095.00
2022-10-06T16:51:23.490Z,102096.00
2022-10-06T16:54:09.906Z,102108.00
2022-10-06T16:56:47.808Z,102110.00
2022-10-06T16:59:22.368Z,102118.00
2022-10-06T17:01:55.425Z,102113.00
2022-10-06T17:04:28.937Z,102122.00
2022-10-06T17:07:02.351Z,102117.00
2022-10-06T17:09:35.314Z,102113.00
2022-10-06T17:12:08.745Z,102113.00
2022-10-06T17:14:41.685Z,102112.00
2022-10-06T17:17:14.680Z,102119.00
2022-10-06T17:19:47.770Z,102127.00
2022-10-06T17:22:21.509Z,102143.00
2022-10-06T17:24:54.292Z,102149.00
2022-10-06T17:27:28.709Z,102155.00
2022-10-06T17:30:01.494Z,102155.00
2022-10-06T17:32:34.544Z,102164.00
2022-10-06T17:35:07.820Z,102170.00
2022-10-06T17:37:41.921Z,102177.00
2022-10-06T17:40:14.929Z,102175.00
2022-10-06T17:42:47.935Z,102188.00
2022-10-06T17:45:21.497Z,102191.00
2022-10-06T17:47:54.515Z,102193.00
2022-10-06T17:50:27.582Z,102180.00
2022-10-06T17:53:01.430Z,102194.00
2022-10-06T17:55:38.640Z,102196.00
2022-10-06T17:58:15.175Z,102209.00
2022-10-06T18:00:45.520Z,102210.00
2022-10-06T18:03:18.361Z,102212.00
2022-10-06T18:05:59.290Z,102219.00
2022-10-06T18:08:37.342Z,102218.00
2022-10-06T18:11:27.931Z,102224.00
2022-10-06T18:14:01.038Z,102234.00
2022-10-06T18:16:36.987Z,102237.00
2022-10-06T18:19:12.061Z,102240.00
2022-10-06T18:21:46.033Z,102252.00
2022-10-06T18:24:29.633Z,102257.00
2022-10-06T18:27:03.850Z,102258.00
2022-10-06T18:29:39.043Z,102261.00
2022-10-06T18:36:12.045Z,102270.00
2022-10-06T18:37:20.454Z,102258.00
2022-10-06T18:39:53.176Z,102261.00
2022-10-06T18:42:26.543Z,102271.00
2022-10-06T18:45:16.983Z,102272.00
2022-10-06T18:48:07.256Z,102286.00
2022-10-06T18:50:41.271Z,102285.00
2022-10-06T18:53:14.207Z,102292.00
2022-10-06T18:55:47.406Z,102291.00
2022-10-06T18:58:20.178Z,102297.00
2022-10-06T19:00:52.945Z,102289.00
2022-10-06T19:03:25.809Z,102299.00
2022-10-06T19:05:58.970Z,102301.00
2022-10-06T19:08:31.908Z,102296.00
2022-10-06T19:11:22.865Z,102296.00
2022-10-06T19:13:57.750Z,102317.00
2022-10-06T19:16:30.719Z,102311.00
2022-10-06T19:19:04.861Z,102307.00
2022-10-06T19:21:39.019Z,102302.00
2022-10-06T19:24:13.297Z,102317.00
2022-10-06T19:26:47.039Z,102314.00
2022-10-06T19:29:21.333Z,102326.00
2022-10-06T19:31:55.327Z,102318.00
2022-10-06T19:34:28.453Z,102335.00
2022-10-06T19:37:04.196Z,102335.00
2022-10-06T19:39:39.973Z,102339.00
2022-10-06T19:42:40.090Z,102332.00
2022-10-06T19:45:13.977Z,102346.00
2022-10-06T19:47:47.768Z,102348.00
2022-10-06T19:50:21.591Z,102351.00
2022-10-06T19:52:54.657Z,102358.00
2022-10-06T19:55:29.859Z,102360.00
2022-10-06T19:58:02.914Z,102367.00
2022-10-06T20:00:35.821Z,102368.00
2022-10-06T20:03:09.474Z,102371.00
2022-10-06T20:05:42.497Z,102372.00
2022-10-06T20:08:15.567Z,102381.00
2022-10-06T20:10:48.556Z,102376.00
2022-10-06T20:13:22.107Z,102373.00
2022-10-06T20:15:55.328Z,102384.00
2022-10-06T20:18:33.598Z,102378.00
2022-10-06T20:21:06.855Z,102391.00
2022-10-06T20:23:39.756Z,102391.00
2022-10-06T20:26:14.897Z,102403.00
2022-10-06T20:28:49.035Z,102398.00
2022-10-06T20:31:27.851Z,102405.00
2022-10-06T20:34:02.626Z,102406.00
2022-10-06T20:36:36.858Z,102420.00
2022-10-06T20:39:31.574Z,102418.00
2022-10-06T20:42:04.613Z,102407.00
2022-10-06T20:44:37.906Z,102418.00
2022-10-06T20:47:13.823Z,102412.00
2022-10-06T20:49:46.778Z,102424.00
2022-10-06T20:52:19.880Z,102420.00
2022-10-06T20:54:53.089Z,102420.00
2022-10-06T20:57:28.107Z,102430.00
2022-10-06T21:00:00.159Z,102438.00
2022-10-06T21:02:34.053Z,102429.00
2022-10-06T21:05:07.198Z,102440.00
2022-10-06T21:07:40.180Z,102438.00
2022-10-06T21:10:13.583Z,102438.00
2022-10-06T21:12:47.988Z,102447.00
2022-10-06T21:15:21.181Z,102453.00
2022-10-06T21:17:54.170Z,102454.00
2022-10-06T21:20:29.975Z,102463.00
2022-10-06T21:23:03.036Z,102463.00
2022-10-06T21:25:37.087Z,102467.00
2022-10-06T21:28:10.157Z,102468.00
2022-10-06T21:30:44.379Z,102466.00
2022-10-06T21:33:19.667Z,102465.00
2022-10-06T21:35:54.289Z,102463.00
2022-10-06T21:38:27.399Z,102486.00
2022-10-06T21:41:01.885Z,102474.00
2022-10-06T21:43:34.801Z,102474.00
2022-10-06T21:46:27.515Z,102481.00
2022-10-06T21:48:42.157Z,102483.00
2022-10-06T21:51:15.178Z,102478.00
2022-10-06T21:53:48.405Z,102495.00
2022-10-06T21:56:21.865Z,102488.00
2022-10-06T21:58:59.978Z,102486.00
2022-10-06T22:01:39.802Z,102494.00
2022-10-06T22:04:14.168Z,102499.00
2022-10-06T22:06:49.484Z,102504.00
2022-10-06T22:09:23.666Z,102498.00
2022-10-06T22:11:57.031Z,102492.00
2022-10-06T22:14:29.976Z,102496.00
2022-10-06T22:17:02.857Z,102495.00
2022-10-06T22:19:35.892Z,102488.00
2022-10-06T22:22:08.857Z,102493.00
2022-10-06T22:24:45.887Z,102503.00
2022-10-06T22:27:19.148Z,102501.00
2022-10-06T22:29:52.085Z,102496.00
2022-10-06T22:32:25.731Z,102494.00
2022-10-06T22:34:59.233Z,102495.00
2022-10-06T22:37:32.115Z,102496.00
2022-10-06T22:40:07.611Z,102488.00
2022-10-06T22:42:39.188Z,102494.00
2022-10-06T22:45:12.442Z,102500.00
2022-10-06T22:47:45.575Z,102502.00
2022-10-06T22:50:19.301Z,102500.00
2022-10-06T22:52:52.428Z,102499.00
2022-10-06T22:55:25.223Z,102499.00
2022-10-06T22:57:58.231Z,102505.00
2022-10-06T23:00:31.420Z,102503.00
2022-10-06T23:03:04.439Z,102512.00
2022-10-06T23:05:37.543Z,102509.00
2022-10-06T23:08:11.275Z,102513.00
2022-10-06T23:10:44.215Z,102509.00
2022-10-06T23:13:17.738Z,102510.00
2022-10-06T23:15:50.749Z,102508.00
2022-10-06T23:18:23.694Z,102511.00
2022-10-06T23:20:56.558Z,102506.00
2022-10-06T23:23:29.397Z,102515.00
2022-10-06T23:26:03.762Z,102504.00
2022-10-06T23:28:36.897Z,102507.00
2022-10-06T23:31:11.059Z,102514.00
2022-10-06T23:33:44.068Z,102508.00
2022-10-06T23:36:17.169Z,102504.00
2022-10-06T23:38:55.245Z,102507.00
2022-10-06T23:41:28.242Z,102510.00
2022-10-06T23:44:01.766Z,102507.00
2022-10-06T23:46:34.742Z,102517.00
2022-10-06T23:49:12.116Z,102512.00
2022-10-06T23:51:45.168Z,102501.00
2022-10-06T23:54:17.969Z,102501.00
2022-10-06T23:56:52.504Z,102512.00
2022-10-06T23:59:25.460Z,102510.00
